Time;durP1;ratioP1;P1;durP2;ratioP2;P2;SDS_P1;SDS_P2;PMS_P1;PMS_P2;Temp;Humidity;BMP_temperature;BMP_pressure;BME280_temperature;BME280_humidity;BME280_pressure;Samples;Min_cycle;Max_cycle;Signal;HPM_P1;HPM_P2
2022/11/08 00:01:55;;;;;;;;;;;18.70;99.90;;;;;;5070108;28;19924;-62
2022/11/08 00:04:23;;;;;;;;;;;18.70;99.90;;;;;;5042812;28;20308;-61
2022/11/08 00:15:08;;;;;;;;;;;18.60;99.90;;;;;;5059703;28;19939;-59
2022/11/08 00:17:35;;;;;;;;;;;18.60;99.90;;;;;;5063154;28;19920;-62
2022/11/08 00:20:03;;;;;;;;;;;18.60;99.90;;;;;;5067159;28;19932;-61
2022/11/08 00:22:30;;;;;;;;;;;18.60;99.90;;;;;;5066059;28;19920;-60
2022/11/08 00:24:57;;;;;;;;;;;18.60;99.90;;;;;;5049615;28;19931;-60
2022/11/08 00:27:25;;;;;;;;;;;18.60;99.90;;;;;;5064391;28;19924;-61
2022/11/08 00:29:52;;;;;;;;;;;18.60;99.90;;;;;;5048023;28;19925;-61
2022/11/08 00:32:20;;;;;;;;;;;18.60;99.90;;;;;;5065506;28;20343;-60
2022/11/08 00:34:47;;;;;;;;;;;18.50;99.90;;;;;;5066669;28;19931;-62
2022/11/08 00:37:15;;;;;;;;;;;18.60;99.90;;;;;;5067225;28;19924;-63
2022/11/08 00:39:42;;;;;;;;;;;18.50;99.90;;;;;;5065530;28;19924;-62
2022/11/08 00:42:09;;;;;;;;;;;18.60;99.90;;;;;;5066470;28;19924;-63
2022/11/08 00:44:36;;;;;;;;;;;18.50;99.90;;;;;;5066957;28;20487;-61
2022/11/08 00:47:03;;;;;;;;;;;18.50;99.90;;;;;;5046428;28;20407;-59
2022/11/08 00:49:30;;;;;;;;;;;18.50;99.90;;;;;;5051975;28;19932;-58
2022/11/08 00:51:58;;;;;;;;;;;18.50;99.90;;;;;;5067894;28;19924;-62
2022/11/08 00:54:25;;;;;;;;;;;18.50;99.90;;;;;;5065719;28;19925;-60
2022/11/08 00:56:52;;;;;;;;;;;18.50;99.90;;;;;;5067388;28;19924;-59
2022/11/08 00:59:19;;;;;;;;;;;18.50;99.90;;;;;;5062905;28;19935;-63
2022/11/08 01:01:46;;;;;;;;;;;18.50;99.90;;;;;;5060187;28;19924;-62
2022/11/08 01:04:14;;;;;;;;;;;18.40;99.90;;;;;;5065237;28;19932;-63
2022/11/08 01:06:41;;;;;;;;;;;18.40;99.90;;;;;;5058506;28;19920;-62
2022/11/08 01:09:09;;;;;;;;;;;18.40;99.90;;;;;;5063576;28;19920;-61
2022/11/08 01:11:36;;;;;;;;;;;18.40;99.90;;;;;;5065400;28;20300;-59
2022/11/08 01:14:04;;;;;;;;;;;18.40;99.90;;;;;;5066809;28;20272;-62
2022/11/08 01:16:31;;;;;;;;;;;18.40;99.90;;;;;;5063648;28;19924;-62
2022/11/08 01:18:59;;;;;;;;;;;18.40;99.90;;;;;;5042567;28;19947;-61
2022/11/08 01:21:26;;;;;;;;;;;18.40;99.90;;;;;;5066896;28;19929;-63
2022/11/08 01:23:53;;;;;;;;;;;18.40;99.90;;;;;;5065889;28;19932;-60
2022/11/08 01:26:25;;;;;;;;;;;18.40;99.90;;;;;;5062987;28;19928;-61
2022/11/08 01:28:53;;;;;;;;;;;18.40;99.90;;;;;;5066809;28;19939;-62
2022/11/08 01:31:21;;;;;;;;;;;18.40;99.90;;;;;;5065952;28;19920;-62
2022/11/08 01:33:48;;;;;;;;;;;18.40;99.90;;;;;;5066315;28;20292;-62
2022/11/08 01:36:19;;;;;;;;;;;18.30;99.90;;;;;;5064705;28;19924;-61
2022/11/08 01:38:46;;;;;;;;;;;18.30;99.90;;;;;;5064865;28;19924;-61
2022/11/08 01:41:14;;;;;;;;;;;18.30;99.90;;;;;;5067185;28;19928;-63
2022/11/08 01:43:45;;;;;;;;;;;18.30;99.90;;;;;;5066485;28;19991;-61
2022/11/08 01:46:18;;;;;;;;;;;18.30;99.90;;;;;;5063397;28;19961;-62
2022/11/08 01:48:52;;;;;;;;;;;18.30;99.90;;;;;;5065863;28;19924;-59
2022/11/08 01:51:21;;;;;;;;;;;18.20;99.90;;;;;;5064168;28;19943;-58
2022/11/08 01:53:49;;;;;;;;;;;18.30;99.90;;;;;;5045646;28;19929;-55
2022/11/08 01:56:16;;;;;;;;;;;18.30;99.90;;;;;;5060956;28;19925;-61
2022/11/08 01:58:45;;;;;;;;;;;18.30;99.90;;;;;;5055556;28;19928;-61
2022/11/08 02:01:12;;;;;;;;;;;18.20;99.90;;;;;;5063246;28;19925;-61
2022/11/08 02:03:40;;;;;;;;;;;18.20;99.90;;;;;;5047319;28;19931;-60
2022/11/08 02:06:07;;;;;;;;;;;18.20;99.90;;;;;;5066346;28;19924;-61
2022/11/08 02:08:42;;;;;;;;;;;18.20;99.90;;;;;;5069208;28;20304;-63
2022/11/08 02:11:12;;;;;;;;;;;18.20;99.90;;;;;;5070298;28;19924;-58
2022/11/08 02:13:39;;;;;;;;;;;18.20;99.90;;;;;;5063985;28;20395;-61
2022/11/08 02:16:10;;;;;;;;;;;18.20;99.90;;;;;;5067508;28;19927;-60
2022/11/08 02:18:37;;;;;;;;;;;18.20;99.90;;;;;;5042202;28;19924;-62
2022/11/08 02:21:08;;;;;;;;;;;18.20;99.90;;;;;;5065154;28;19920;-62
2022/11/08 02:23:42;;;;;;;;;;;18.10;99.90;;;;;;5069125;28;19920;-62
2022/11/08 02:26:10;;;;;;;;;;;18.10;99.90;;;;;;5065775;28;19936;-63
2022/11/08 02:28:41;;;;;;;;;;;18.10;99.90;;;;;;5054160;28;19925;-59
2022/11/08 02:31:12;;;;;;;;;;;18.10;99.90;;;;;;5063896;28;20396;-59
2022/11/08 02:33:39;;;;;;;;;;;18.10;99.90;;;;;;5069346;28;19928;-58
2022/11/08 02:36:08;;;;;;;;;;;18.10;99.90;;;;;;5069137;28;19924;-63
2022/11/08 02:38:37;;;;;;;;;;;18.10;99.90;;;;;;5063252;28;19927;-59
2022/11/08 02:41:05;;;;;;;;;;;18.10;99.90;;;;;;5066358;28;19920;-61
2022/11/08 02:43:32;;;;;;;;;;;18.10;99.90;;;;;;5067147;28;20406;-62
2022/11/08 02:45:59;;;;;;;;;;;18.10;99.90;;;;;;5067262;28;19932;-61
2022/11/08 02:48:26;;;;;;;;;;;18.10;99.90;;;;;;5062847;28;19924;-59
2022/11/08 02:50:53;;;;;;;;;;;18.10;99.90;;;;;;5065814;28;19931;-61
2022/11/08 02:53:20;;;;;;;;;;;18.10;99.90;;;;;;5064791;28;20407;-63
2022/11/08 02:55:47;;;;;;;;;;;18.10;99.90;;;;;;5063048;28;20398;-62
2022/11/08 02:58:14;;;;;;;;;;;18.10;99.90;;;;;;5068335;28;20392;-61
2022/11/08 03:00:42;;;;;;;;;;;18.10;99.90;;;;;;5068944;28;19925;-63
2022/11/08 03:03:09;;;;;;;;;;;18.10;99.90;;;;;;5068007;28;19935;-59
2022/11/08 03:05:36;;;;;;;;;;;18.10;99.90;;;;;;5068354;28;19935;-61
2022/11/08 03:08:04;;;;;;;;;;;18.10;99.90;;;;;;5052587;28;19931;-61
2022/11/08 03:10:31;;;;;;;;;;;18.10;99.90;;;;;;5067021;28;19924;-63
2022/11/08 03:12:59;;;;;;;;;;;18.00;99.90;;;;;;5053005;28;20339;-62
2022/11/08 03:15:26;;;;;;;;;;;18.10;99.90;;;;;;5068544;28;19920;-63
2022/11/08 03:17:57;;;;;;;;;;;18.00;99.90;;;;;;5066839;28;19931;-62
2022/11/08 03:20:25;;;;;;;;;;;18.00;99.90;;;;;;5067010;28;19925;-60
2022/11/08 03:22:59;;;;;;;;;;;18.00;99.90;;;;;;5066626;28;20010;-60
2022/11/08 03:25:26;;;;;;;;;;;18.00;99.90;;;;;;5071906;28;19921;-62
2022/11/08 03:27:53;;;;;;;;;;;18.00;99.90;;;;;;5074097;28;19924;-62
2022/11/08 03:30:20;;;;;;;;;;;18.00;99.90;;;;;;5057405;28;19935;-63
2022/11/08 03:32:48;;;;;;;;;;;18.00;99.90;;;;;;5065152;28;20407;-59
2022/11/08 03:35:15;;;;;;;;;;;18.00;99.90;;;;;;5068239;28;20415;-58
2022/11/08 03:37:50;;;;;;;;;;;18.00;99.90;;;;;;5067719;28;19925;-63
2022/11/08 03:40:17;;;;;;;;;;;18.00;99.90;;;;;;5065200;28;19947;-59
2022/11/08 03:42:44;;;;;;;;;;;18.00;99.90;;;;;;5069298;28;19920;-61
2022/11/08 03:45:12;;;;;;;;;;;18.00;99.90;;;;;;5068480;28;19924;-57
2022/11/08 03:47:39;;;;;;;;;;;18.00;99.90;;;;;;5049088;28;20411;-62
2022/11/08 03:50:07;;;;;;;;;;;18.00;99.90;;;;;;5064504;28;19924;-61
2022/11/08 03:52:47;;;;;;;;;;;18.00;99.90;;;;;;5068009;28;19939;-61
2022/11/08 03:55:15;;;;;;;;;;;18.00;99.90;;;;;;5073553;28;20379;-62
2022/11/08 03:57:43;;;;;;;;;;;18.00;99.90;;;;;;5067388;28;19924;-61
2022/11/08 04:00:12;;;;;;;;;;;17.90;99.90;;;;;;5068008;28;19933;-62
2022/11/08 04:02:39;;;;;;;;;;;17.90;99.90;;;;;;5068229;28;20293;-62
2022/11/08 04:05:07;;;;;;;;;;;17.90;99.90;;;;;;5050566;28;19920;-61
2022/11/08 04:07:35;;;;;;;;;;;17.90;99.90;;;;;;5064271;28;19921;-63
2022/11/08 04:10:03;;;;;;;;;;;17.90;99.90;;;;;;5065988;28;19924;-62
2022/11/08 04:15:17;;;;;;;;;;;17.90;99.90;;;;;;5066580;28;19932;-62
2022/11/08 04:23:17;;;;;;;;;;;17.90;99.90;;;;;;5062852;28;19924;-61
2022/11/08 04:25:44;;;;;;;;;;;17.90;99.90;;;;;;5064841;28;20140;-62
2022/11/08 04:28:11;;;;;;;;;;;17.90;99.90;;;;;;5067689;28;19920;-62
2022/11/08 04:30:38;;;;;;;;;;;17.80;99.90;;;;;;5062860;28;19928;-62
2022/11/08 04:33:05;;;;;;;;;;;17.90;99.90;;;;;;5064994;28;19920;-63
2022/11/08 04:35:33;;;;;;;;;;;17.80;99.90;;;;;;5067690;28;20438;-63
2022/11/08 04:38:01;;;;;;;;;;;17.80;99.90;;;;;;5062535;28;19932;-61
2022/11/08 04:40:29;;;;;;;;;;;17.80;99.90;;;;;;5065745;28;19929;-62
2022/11/08 04:42:56;;;;;;;;;;;17.80;99.90;;;;;;5063127;28;19924;-61
2022/11/08 04:45:23;;;;;;;;;;;17.80;99.90;;;;;;5065318;28;19931;-60
2022/11/08 04:47:50;;;;;;;;;;;17.80;99.90;;;;;;5064144;28;19931;-61
2022/11/08 04:50:17;;;;;;;;;;;17.80;99.90;;;;;;5066279;28;19951;-59
2022/11/08 04:52:49;;;;;;;;;;;17.80;99.90;;;;;;5050126;28;19924;-61
2022/11/08 04:55:16;;;;;;;;;;;17.80;99.90;;;;;;5067440;28;19927;-61
2022/11/08 04:57:43;;;;;;;;;;;17.90;99.90;;;;;;5062396;28;19932;-62
2022/11/08 05:00:11;;;;;;;;;;;18.00;99.90;;;;;;5062806;28;19932;-61
2022/11/08 05:02:38;;;;;;;;;;;18.00;99.90;;;;;;5066148;28;19935;-62
2022/11/08 05:05:05;;;;;;;;;;;18.10;99.90;;;;;;5053434;28;19928;-60
2022/11/08 05:07:32;;;;;;;;;;;18.30;99.90;;;;;;5062060;28;19925;-61
2022/11/08 05:09:59;;;;;;;;;;;18.50;99.90;;;;;;5066296;28;19925;-61
2022/11/08 05:12:28;;;;;;;;;;;18.70;99.90;;;;;;5066184;28;19920;-65
2022/11/08 05:14:55;;;;;;;;;;;18.80;99.90;;;;;;5048311;28;20304;-62
2022/11/08 05:17:22;;;;;;;;;;;18.90;99.90;;;;;;5066059;28;19925;-62
2022/11/08 05:25:21;;;;;;;;;;;18.90;99.90;;;;;;5065748;28;19924;-63
2022/11/08 05:27:48;;;;;;;;;;;18.90;99.90;;;;;;5066937;28;19931;-61
2022/11/08 05:30:15;;;;;;;;;;;18.90;99.90;;;;;;5064288;28;19920;-60
2022/11/08 05:32:42;;;;;;;;;;;18.90;99.90;;;;;;5066936;28;19924;-56
2022/11/08 05:35:09;;;;;;;;;;;18.90;99.90;;;;;;5066233;28;20409;-61
2022/11/08 05:37:39;;;;;;;;;;;18.90;99.90;;;;;;5045382;28;19931;-63
2022/11/08 05:40:06;;;;;;;;;;;18.90;99.90;;;;;;5059597;28;20410;-59
2022/11/08 05:42:34;;;;;;;;;;;18.90;99.90;;;;;;5069763;28;19930;-58
2022/11/08 05:45:01;;;;;;;;;;;18.90;99.90;;;;;;5070796;28;19928;-60
2022/11/08 05:47:35;;;;;;;;;;;18.90;99.90;;;;;;5066923;28;19920;-63
2022/11/08 05:50:03;;;;;;;;;;;18.80;99.90;;;;;;5050822;28;19924;-64
2022/11/08 05:52:30;;;;;;;;;;;18.80;99.90;;;;;;5068411;28;20404;-60
2022/11/08 05:54:57;;;;;;;;;;;18.80;99.90;;;;;;5070312;28;20410;-60
2022/11/08 05:57:24;;;;;;;;;;;18.80;99.90;;;;;;5069494;28;19927;-60
2022/11/08 05:59:51;;;;;;;;;;;18.70;99.90;;;;;;5066505;28;19935;-60
2022/11/08 06:02:18;;;;;;;;;;;18.70;99.90;;;;;;5069865;28;19924;-66
2022/11/08 06:04:45;;;;;;;;;;;18.70;99.90;;;;;;5065581;28;19924;-63
2022/11/08 06:07:12;;;;;;;;;;;18.70;99.90;;;;;;5071102;28;19924;-61
2022/11/08 06:09:39;;;;;;;;;;;18.80;99.90;;;;;;5051536;28;20508;-61
2022/11/08 06:12:06;;;;;;;;;;;18.80;99.90;;;;;;5068089;28;20284;-63
2022/11/08 06:14:34;;;;;;;;;;;18.80;99.90;;;;;;5049274;28;19979;-60
2022/11/08 06:17:01;;;;;;;;;;;18.90;99.90;;;;;;5049194;28;19924;-61
2022/11/08 06:19:28;;;;;;;;;;;18.90;99.90;;;;;;5070592;28;19928;-62
2022/11/08 06:21:55;;;;;;;;;;;19.00;99.90;;;;;;5067154;28;19947;-62
2022/11/08 06:24:22;;;;;;;;;;;19.00;99.90;;;;;;5066623;28;19924;-61
2022/11/08 06:26:49;;;;;;;;;;;19.00;99.90;;;;;;5070554;28;19936;-61
2022/11/08 06:29:16;;;;;;;;;;;19.00;99.90;;;;;;5065203;28;19924;-59
2022/11/08 06:31:43;;;;;;;;;;;19.10;99.90;;;;;;5070085;28;19935;-59
2022/11/08 06:34:10;;;;;;;;;;;19.10;99.90;;;;;;5069563;28;19931;-61
2022/11/08 06:36:37;;;;;;;;;;;19.00;99.90;;;;;;5071240;28;19925;-63
2022/11/08 06:39:04;;;;;;;;;;;19.00;99.90;;;;;;5069007;28;19920;-63
2022/11/08 06:41:32;;;;;;;;;;;19.00;99.90;;;;;;5066751;28;19935;-63
2022/11/08 06:43:59;;;;;;;;;;;19.00;99.90;;;;;;5052420;28;19920;-60
2022/11/08 06:46:26;;;;;;;;;;;19.00;99.90;;;;;;5066784;28;19928;-61
2022/11/08 06:48:53;;;;;;;;;;;19.00;99.90;;;;;;5067200;28;20175;-62
2022/11/08 06:51:20;;;;;;;;;;;19.00;99.90;;;;;;5066396;28;19927;-61
2022/11/08 06:53:47;;;;;;;;;;;19.00;99.90;;;;;;5064309;28;20507;-59
2022/11/08 06:56:14;;;;;;;;;;;19.00;99.90;;;;;;5068934;28;19931;-57
2022/11/08 06:58:41;;;;;;;;;;;19.00;99.90;;;;;;5068520;28;20155;-59
2022/11/08 07:01:09;;;;;;;;;;;19.00;99.90;;;;;;5064090;28;19921;-57
2022/11/08 07:03:36;;;;;;;;;;;19.00;99.90;;;;;;5065855;28;19924;-61
2022/11/08 07:06:04;;;;;;;;;;;19.00;99.90;;;;;;5064851;28;19924;-60
2022/11/08 07:08:32;;;;;;;;;;;18.90;99.90;;;;;;5065145;28;20315;-62
2022/11/08 07:10:59;;;;;;;;;;;18.90;99.90;;;;;;5068313;28;19920;-61
2022/11/08 07:13:26;;;;;;;;;;;18.90;99.90;;;;;;5065809;28;19920;-61
2022/11/08 07:15:55;;;;;;;;;;;18.80;99.90;;;;;;5066799;28;19935;-60
2022/11/08 07:18:22;;;;;;;;;;;18.90;99.90;;;;;;5062056;28;19935;-58
2022/11/08 07:20:51;;;;;;;;;;;18.90;99.90;;;;;;5067328;28;19924;-60
2022/11/08 07:23:18;;;;;;;;;;;18.90;99.90;;;;;;5067893;28;20276;-57
2022/11/08 07:25:45;;;;;;;;;;;18.90;99.90;;;;;;5066918;28;19997;-56
2022/11/08 07:28:14;;;;;;;;;;;19.10;99.90;;;;;;5065389;28;19928;-57
2022/11/08 07:30:42;;;;;;;;;;;19.00;99.90;;;;;;5066222;28;20386;-59
2022/11/08 07:33:09;;;;;;;;;;;19.00;99.90;;;;;;5066994;28;20384;-56
2022/11/08 07:35:36;;;;;;;;;;;19.00;99.90;;;;;;5065932;28;19920;-59
2022/11/08 07:38:03;;;;;;;;;;;19.00;99.90;;;;;;5067799;28;19924;-57
2022/11/08 07:40:30;;;;;;;;;;;19.00;99.90;;;;;;5064226;28;19968;-60
2022/11/08 07:42:58;;;;;;;;;;;18.90;99.90;;;;;;5070901;28;19924;-59
2022/11/08 07:45:42;;;;;;;;;;;18.90;99.90;;;;;;5051317;28;19958;-58
2022/11/08 07:48:11;;;;;;;;;;;18.80;99.90;;;;;;5065418;28;19928;-58
2022/11/08 07:50:40;;;;;;;;;;;18.80;99.90;;;;;;5066916;28;19927;-58
2022/11/08 07:53:07;;;;;;;;;;;18.70;99.90;;;;;;5064464;28;19924;-62
2022/11/08 07:55:36;;;;;;;;;;;18.70;99.90;;;;;;5066758;28;20281;-64
2022/11/08 07:58:03;;;;;;;;;;;18.70;99.90;;;;;;5066507;28;20354;-61
2022/11/08 08:00:32;;;;;;;;;;;18.60;99.90;;;;;;5065836;28;20299;-63
2022/11/08 08:02:59;;;;;;;;;;;18.60;99.90;;;;;;5067090;28;19927;-62
2022/11/08 08:05:28;;;;;;;;;;;18.60;99.90;;;;;;5064202;28;19932;-62
2022/11/08 08:07:56;;;;;;;;;;;18.70;99.90;;;;;;5066765;28;19931;-62
2022/11/08 08:10:23;;;;;;;;;;;18.70;99.90;;;;;;5064889;28;19928;-64
2022/11/08 08:12:50;;;;;;;;;;;18.80;99.90;;;;;;5061862;28;20301;-63
2022/11/08 08:15:17;;;;;;;;;;;18.80;99.90;;;;;;5063397;28;19931;-61
2022/11/08 08:17:44;;;;;;;;;;;18.90;99.90;;;;;;5066480;28;19928;-62
2022/11/08 08:20:11;;;;;;;;;;;19.00;99.90;;;;;;5064441;28;19924;-63
2022/11/08 08:22:49;;;;;;;;;;;19.00;99.90;;;;;;5063641;28;19928;-62
2022/11/08 08:25:17;;;;;;;;;;;19.10;99.90;;;;;;5067544;28;19924;-64
2022/11/08 08:27:47;;;;;;;;;;;19.20;99.90;;;;;;5066739;28;19920;-64
2022/11/08 08:30:16;;;;;;;;;;;19.20;99.90;;;;;;5068201;28;19921;-62
2022/11/08 08:32:43;;;;;;;;;;;19.20;99.90;;;;;;5064590;28;19967;-64
2022/11/08 08:35:16;;;;;;;;;;;19.30;99.90;;;;;;5066179;28;19928;-62
2022/11/08 08:37:43;;;;;;;;;;;19.30;99.90;;;;;;5067612;28;19928;-63
2022/11/08 08:40:10;;;;;;;;;;;19.30;99.90;;;;;;5050550;28;19924;-63
2022/11/08 08:42:37;;;;;;;;;;;19.30;99.90;;;;;;5066666;28;19931;-64
2022/11/08 08:45:05;;;;;;;;;;;19.30;99.90;;;;;;5064001;28;19920;-63
2022/11/08 08:47:38;;;;;;;;;;;19.30;99.90;;;;;;5045934;28;20399;-62
2022/11/08 08:50:05;;;;;;;;;;;19.30;99.90;;;;;;5045589;28;20391;-64
2022/11/08 08:52:32;;;;;;;;;;;19.30;99.90;;;;;;5067625;28;20403;-61
2022/11/08 08:54:59;;;;;;;;;;;19.20;99.90;;;;;;5067277;28;19920;-63
2022/11/08 08:57:26;;;;;;;;;;;19.20;99.90;;;;;;5065100;28;19920;-62
2022/11/08 08:59:53;;;;;;;;;;;19.20;99.90;;;;;;5065579;28;19929;-63
2022/11/08 09:02:40;;;;;;;;;;;19.20;99.90;;;;;;5063385;28;19938;-62
2022/11/08 09:05:09;;;;;;;;;;;19.30;99.90;;;;;;5067917;28;19920;-61
2022/11/08 09:07:36;;;;;;;;;;;19.40;99.90;;;;;;5062746;28;20258;-64
2022/11/08 09:10:04;;;;;;;;;;;19.40;99.90;;;;;;5068766;28;20300;-64
2022/11/08 09:12:32;;;;;;;;;;;19.40;99.90;;;;;;5053007;28;20414;-62
2022/11/08 09:14:59;;;;;;;;;;;19.50;99.90;;;;;;5060280;28;19924;-62
2022/11/08 09:17:27;;;;;;;;;;;19.50;99.90;;;;;;5053579;28;19920;-62
2022/11/08 09:19:54;;;;;;;;;;;19.50;99.90;;;;;;5070526;28;19925;-64
2022/11/08 09:22:23;;;;;;;;;;;19.50;99.90;;;;;;5049504;28;20404;-63
2022/11/08 09:24:50;;;;;;;;;;;19.50;99.90;;;;;;5066476;28;19943;-62
2022/11/08 09:27:17;;;;;;;;;;;19.50;99.90;;;;;;5064363;28;19955;-61
2022/11/08 09:29:44;;;;;;;;;;;19.50;99.90;;;;;;5071293;28;19921;-62
2022/11/08 09:32:11;;;;;;;;;;;19.60;99.90;;;;;;5071086;28;19943;-63
2022/11/08 09:34:38;;;;;;;;;;;19.60;99.90;;;;;;5070145;28;19920;-62
2022/11/08 09:37:05;;;;;;;;;;;19.60;99.90;;;;;;5068143;28;19921;-63
2022/11/08 09:39:33;;;;;;;;;;;19.50;99.90;;;;;;5064180;28;19925;-64
2022/11/08 09:42:00;;;;;;;;;;;19.50;99.90;;;;;;5068397;28;19920;-63
2022/11/08 09:44:45;;;;;;;;;;;19.50;99.90;;;;;;5066523;28;19931;-64
2022/11/08 09:47:23;;;;;;;;;;;19.50;99.90;;;;;;5069229;28;19924;-62
2022/11/08 09:49:54;;;;;;;;;;;19.40;99.90;;;;;;5055492;28;19943;-59
2022/11/08 09:52:23;;;;;;;;;;;19.40;99.90;;;;;;5051943;28;19920;-63
2022/11/08 09:54:54;;;;;;;;;;;19.40;99.90;;;;;;5065920;28;19920;-63
2022/11/08 09:57:27;;;;;;;;;;;19.40;99.90;;;;;;5052226;28;19928;-64
2022/11/08 10:00:00;;;;;;;;;;;19.40;99.90;;;;;;5050575;28;20368;-63
2022/11/08 10:02:32;;;;;;;;;;;19.30;99.90;;;;;;5075889;28;19928;-62
2022/11/08 10:05:00;;;;;;;;;;;19.30;99.90;;;;;;5070312;28;19931;-63
2022/11/08 10:07:27;;;;;;;;;;;19.30;99.90;;;;;;5069419;28;19929;-64
2022/11/08 10:10:10;;;;;;;;;;;19.30;99.90;;;;;;5063317;28;20410;-64
2022/11/08 10:12:58;;;;;;;;;;;19.20;99.90;;;;;;5065279;28;19940;-64
2022/11/08 10:15:42;;;;;;;;;;;19.20;99.90;;;;;;5062957;28;19932;-63
2022/11/08 10:18:27;;;;;;;;;;;19.20;99.90;;;;;;5066824;28;19932;-62
2022/11/08 10:21:06;;;;;;;;;;;19.20;99.90;;;;;;5066482;28;19924;-63
2022/11/08 10:23:41;;;;;;;;;;;19.20;99.90;;;;;;5053117;28;19935;-62
2022/11/08 10:26:16;;;;;;;;;;;19.10;99.90;;;;;;5065180;28;19931;-60
2022/11/08 10:28:49;;;;;;;;;;;19.10;99.90;;;;;;5065026;28;20403;-64
2022/11/08 10:31:18;;;;;;;;;;;19.10;99.90;;;;;;5067157;28;19928;-64
2022/11/08 10:33:52;;;;;;;;;;;19.10;99.90;;;;;;5065834;28;19932;-63
2022/11/08 10:36:22;;;;;;;;;;;19.10;99.90;;;;;;5064418;28;19924;-62
2022/11/08 10:39:02;;;;;;;;;;;19.20;99.90;;;;;;5065569;28;20276;-60
2022/11/08 10:41:47;;;;;;;;;;;19.20;99.90;;;;;;5066904;28;19924;-61
2022/11/08 10:44:15;;;;;;;;;;;19.20;99.90;;;;;;5065185;28;19924;-62
2022/11/08 10:47:01;;;;;;;;;;;19.30;99.90;;;;;;5068808;28;19931;-62
2022/11/08 10:49:30;;;;;;;;;;;19.40;99.90;;;;;;5064347;28;19924;-62
2022/11/08 10:51:59;;;;;;;;;;;19.40;99.90;;;;;;5068690;28;20304;-62
2022/11/08 10:54:46;;;;;;;;;;;19.40;99.90;;;;;;5063586;28;20331;-61
2022/11/08 10:57:22;;;;;;;;;;;19.50;99.90;;;;;;5066791;28;19928;-60
2022/11/08 10:59:50;;;;;;;;;;;19.50;99.90;;;;;;5066133;28;19924;-62
2022/11/08 11:02:19;;;;;;;;;;;19.50;99.90;;;;;;5065595;28;19928;-60
2022/11/08 11:04:47;;;;;;;;;;;19.50;99.90;;;;;;5061721;28;20311;-62
2022/11/08 11:07:25;;;;;;;;;;;19.60;99.90;;;;;;5066269;28;19924;-61
2022/11/08 11:09:52;;;;;;;;;;;19.60;99.90;;;;;;5066794;28;19935;-62
2022/11/08 11:12:19;;;;;;;;;;;19.60;99.90;;;;;;5066445;28;19920;-60
2022/11/08 11:14:57;;;;;;;;;;;19.60;99.90;;;;;;5059725;28;19935;-58
2022/11/08 11:17:29;;;;;;;;;;;19.60;99.90;;;;;;5068272;28;19939;-65
2022/11/08 11:20:01;;;;;;;;;;;19.60;99.90;;;;;;5065963;28;19924;-63
2022/11/08 11:22:31;;;;;;;;;;;19.60;99.90;;;;;;5066049;28;19920;-61
2022/11/08 11:25:05;;;;;;;;;;;19.60;99.90;;;;;;5064956;28;19951;-60
2022/11/08 11:27:35;;;;;;;;;;;19.60;99.90;;;;;;5067127;28;20404;-60
2022/11/08 11:30:11;;;;;;;;;;;19.60;99.90;;;;;;5066565;28;20624;-60
2022/11/08 11:32:39;;;;;;;;;;;19.60;99.90;;;;;;5064344;28;20292;-59
2022/11/08 11:35:11;;;;;;;;;;;19.60;99.90;;;;;;5066664;28;20427;-58
2022/11/08 11:37:39;;;;;;;;;;;19.60;99.90;;;;;;5066587;28;19928;-60
2022/11/08 11:40:15;;;;;;;;;;;19.60;99.90;;;;;;5059944;28;19927;-60
2022/11/08 11:42:56;;;;;;;;;;;19.60;99.90;;;;;;5057813;28;19924;-55
2022/11/08 11:45:29;;;;;;;;;;;19.60;99.90;;;;;;5067732;28;19927;-57
2022/11/08 11:47:57;;;;;;;;;;;19.60;99.90;;;;;;5062181;28;19921;-59
2022/11/08 11:50:29;;;;;;;;;;;19.60;99.90;;;;;;5068025;28;19935;-60
2022/11/08 11:52:57;;;;;;;;;;;19.50;99.90;;;;;;5063521;28;19920;-58
2022/11/08 11:55:47;;;;;;;;;;;19.50;99.90;;;;;;5065056;28;19924;-58
2022/11/08 11:58:34;;;;;;;;;;;19.50;99.90;;;;;;5038995;28;19925;-60
2022/11/08 12:01:09;;;;;;;;;;;19.40;99.90;;;;;;5059883;28;19925;-61
2022/11/08 12:03:55;;;;;;;;;;;19.40;99.90;;;;;;5044692;28;19921;-60
2022/11/08 12:06:41;;;;;;;;;;;19.30;99.90;;;;;;5063042;28;19931;-62
2022/11/08 12:09:08;;;;;;;;;;;19.40;99.90;;;;;;5063778;28;19968;-58
2022/11/08 12:11:38;;;;;;;;;;;19.30;99.90;;;;;;5067499;28;20114;-59
2022/11/08 12:14:24;;;;;;;;;;;19.30;99.90;;;;;;5066309;28;19921;-59
2022/11/08 12:17:24;;;;;;;;;;;19.30;99.90;;;;;;5067166;28;19974;-58
2022/11/08 12:19:53;;;;;;;;;;;19.30;99.90;;;;;;5025298;28;19935;-57
2022/11/08 12:22:24;;;;;;;;;;;19.30;99.90;;;;;;5066738;28;19920;-58
2022/11/08 12:25:04;;;;;;;;;;;19.20;99.90;;;;;;5062004;28;19947;-58
2022/11/08 12:27:42;;;;;;;;;;;19.10;99.90;;;;;;5066225;28;19931;-60
2022/11/08 12:30:14;;;;;;;;;;;18.70;99.90;;;;;;5063852;28;19970;-63
2022/11/08 12:32:52;;;;;;;;;;;18.60;99.90;;;;;;5063243;28;19927;-59
2022/11/08 12:35:47;;;;;;;;;;;18.40;99.90;;;;;;5061095;28;19920;-62
2022/11/08 12:38:17;;;;;;;;;;;18.50;99.90;;;;;;5032621;28;19948;-59
2022/11/08 12:40:53;;;;;;;;;;;18.70;99.90;;;;;;5065019;28;19924;-60
2022/11/08 12:43:39;;;;;;;;;;;18.90;99.90;;;;;;5063449;28;19943;-64
2022/11/08 12:46:17;;;;;;;;;;;19.10;99.90;;;;;;5067184;28;19939;-62
2022/11/08 12:48:47;;;;;;;;;;;19.50;99.90;;;;;;5066809;28;19920;-62
2022/11/08 12:51:32;;;;;;;;;;;19.70;99.90;;;;;;5067929;28;19924;-57
2022/11/08 12:54:18;;;;;;;;;;;19.90;99.90;;;;;;5066621;28;19920;-64
2022/11/08 12:56:47;;;;;;;;;;;20.00;99.90;;;;;;5065829;28;19920;-60
2022/11/08 12:59:21;;;;;;;;;;;20.20;99.90;;;;;;5060729;28;19924;-62
2022/11/08 13:01:49;;;;;;;;;;;20.30;99.90;;;;;;5066593;28;19947;-62
2022/11/08 13:04:17;;;;;;;;;;;20.40;99.90;;;;;;5063263;28;20419;-63
2022/11/08 13:06:48;;;;;;;;;;;20.60;99.90;;;;;;5060798;28;19931;-66
2022/11/08 13:09:15;;;;;;;;;;;20.80;99.90;;;;;;5062164;28;19921;-60
2022/11/08 13:11:48;;;;;;;;;;;20.80;99.90;;;;;;5064877;28;20353;-61
2022/11/08 13:14:16;;;;;;;;;;;20.80;99.90;;;;;;5065115;28;19947;-59
2022/11/08 13:16:45;;;;;;;;;;;20.80;99.90;;;;;;5065285;28;20292;-58
2022/11/08 13:19:47;;;;;;;;;;;20.80;99.90;;;;;;5066103;28;19924;-62
2022/11/08 13:22:33;;;;;;;;;;;20.80;99.90;;;;;;5064179;28;20314;-60
2022/11/08 13:25:12;;;;;;;;;;;20.80;99.90;;;;;;5060638;28;19943;-60
2022/11/08 13:27:40;;;;;;;;;;;20.80;99.90;;;;;;5062258;28;19932;-61
2022/11/08 13:30:10;;;;;;;;;;;20.80;99.90;;;;;;5066443;28;19925;-63
2022/11/08 13:32:37;;;;;;;;;;;20.80;99.90;;;;;;5062695;28;20502;-61
2022/11/08 13:35:26;;;;;;;;;;;20.70;99.90;;;;;;5065696;28;19928;-60
2022/11/08 13:38:11;;;;;;;;;;;20.70;99.90;;;;;;5066340;28;19931;-60
2022/11/08 13:40:57;;;;;;;;;;;20.60;99.90;;;;;;5045937;28;20383;-60
2022/11/08 13:43:28;;;;;;;;;;;20.60;99.90;;;;;;5058724;28;19924;-60
2022/11/08 13:46:15;;;;;;;;;;;20.60;99.90;;;;;;5065435;28;19924;-61
2022/11/08 13:48:42;;;;;;;;;;;20.50;99.90;;;;;;5061847;28;19926;-60
2022/11/08 13:51:25;;;;;;;;;;;20.50;99.90;;;;;;5065024;28;19921;-61
2022/11/08 13:53:56;;;;;;;;;;;20.50;99.90;;;;;;5067857;28;19998;-58
2022/11/08 13:56:25;;;;;;;;;;;20.40;99.90;;;;;;5060345;28;19932;-62
2022/11/08 13:58:52;;;;;;;;;;;20.40;99.90;;;;;;5066292;28;20418;-59
2022/11/08 14:01:19;;;;;;;;;;;20.30;99.90;;;;;;5067822;28;19931;-60
2022/11/08 14:03:46;;;;;;;;;;;20.30;99.90;;;;;;5064625;28;20430;-61
2022/11/08 14:06:22;;;;;;;;;;;20.30;99.90;;;;;;5067410;28;19924;-60
2022/11/08 14:09:11;;;;;;;;;;;20.30;99.90;;;;;;5066308;28;20272;-61
2022/11/08 14:11:47;;;;;;;;;;;20.20;99.90;;;;;;5069268;28;19924;-60
2022/11/08 14:14:21;;;;;;;;;;;20.20;99.90;;;;;;5066333;28;19929;-57
2022/11/08 14:16:58;;;;;;;;;;;20.10;99.90;;;;;;5066989;28;19942;-59
2022/11/08 14:19:29;;;;;;;;;;;20.10;99.90;;;;;;5066012;28;19921;-60
2022/11/08 14:21:57;;;;;;;;;;;20.00;99.90;;;;;;5072030;28;19920;-61
2022/11/08 14:24:26;;;;;;;;;;;20.00;99.90;;;;;;5070881;28;19920;-62
2022/11/08 14:26:54;;;;;;;;;;;20.00;99.90;;;;;;5069787;28;19920;-63
2022/11/08 14:29:22;;;;;;;;;;;20.00;99.90;;;;;;5051107;28;19939;-60
2022/11/08 14:32:06;;;;;;;;;;;20.10;99.90;;;;;;5071431;28;19924;-62
2022/11/08 14:34:34;;;;;;;;;;;20.10;99.90;;;;;;5069148;28;19931;-60
2022/11/08 14:37:02;;;;;;;;;;;20.00;99.90;;;;;;5068876;28;19931;-59
2022/11/08 14:39:35;;;;;;;;;;;20.10;99.90;;;;;;5046089;28;19955;-62
2022/11/08 14:42:04;;;;;;;;;;;20.20;99.90;;;;;;5067369;28;19924;-63
2022/11/08 14:44:31;;;;;;;;;;;20.20;99.90;;;;;;5058551;28;19929;-62
2022/11/08 14:46:58;;;;;;;;;;;20.20;99.90;;;;;;5052404;28;19924;-63
2022/11/08 14:49:29;;;;;;;;;;;20.20;99.90;;;;;;5067421;28;20409;-62
2022/11/08 14:52:10;;;;;;;;;;;20.20;99.90;;;;;;5069224;28;19920;-61
2022/11/08 14:54:39;;;;;;;;;;;20.30;99.90;;;;;;5061364;28;19924;-64
2022/11/08 14:57:25;;;;;;;;;;;20.30;99.90;;;;;;5060310;28;19924;-61